sensor_id;sensor_type;location;lat;lon;timestamp;temperature;humidity
1626;DHT22;806;48.770;9.156;2022-07-11T00:02:26;17.10;99.90
1626;DHT22;806;48.770;9.156;2022-07-11T00:04:53;17.10;99.90
1626;DHT22;806;48.770;9.156;2022-07-11T00:07:20;17.10;99.90
1626;DHT22;806;48.770;9.156;2022-07-11T00:09:49;17.10;99.90
1626;DHT22;806;48.770;9.156;2022-07-11T00:12:16;17.10;99.90
1626;DHT22;806;48.770;9.156;2022-07-11T00:14:46;17.20;99.90
1626;DHT22;806;48.770;9.156;2022-07-11T00:17:13;17.30;99.90
1626;DHT22;806;48.770;9.156;2022-07-11T00:19:40;17.40;99.90
1626;DHT22;806;48.770;9.156;2022-07-11T00:22:07;17.50;99.90
1626;DHT22;806;48.770;9.156;2022-07-11T00:24:35;17.60;99.90
1626;DHT22;806;48.770;9.156;2022-07-11T00:27:04;17.60;99.90
1626;DHT22;806;48.770;9.156;2022-07-11T00:29:31;17.70;99.90
1626;DHT22;806;48.770;9.156;2022-07-11T00:31:59;17.60;99.90
1626;DHT22;806;48.770;9.156;2022-07-11T00:34:26;17.60;99.90
1626;DHT22;806;48.770;9.156;2022-07-11T00:36:53;17.60;99.90
1626;DHT22;806;48.770;9.156;2022-07-11T00:39:20;17.50;99.90
1626;DHT22;806;48.770;9.156;2022-07-11T00:41:47;17.50;99.90
1626;DHT22;806;48.770;9.156;2022-07-11T00:44:15;17.60;99.90
1626;DHT22;806;48.770;9.156;2022-07-11T00:46:42;17.60;99.90
1626;DHT22;806;48.770;9.156;2022-07-11T00:49:09;17.60;99.90
1626;DHT22;806;48.770;9.156;2022-07-11T00:51:37;17.60;99.90
1626;DHT22;806;48.770;9.156;2022-07-11T00:54:07;17.40;99.90
1626;DHT22;806;48.770;9.156;2022-07-11T00:56:36;17.30;1.00
1626;DHT22;806;48.770;9.156;2022-07-11T00:59:03;17.20;1.00
1626;DHT22;806;48.770;9.156;2022-07-11T01:01:32;17.10;1.00
1626;DHT22;806;48.770;9.156;2022-07-11T01:04:00;17.10;1.00
1626;DHT22;806;48.770;9.156;2022-07-11T01:06:27;17.10;1.00
1626;DHT22;806;48.770;9.156;2022-07-11T01:08:54;17.10;1.00
1626;DHT22;806;48.770;9.156;2022-07-11T01:11:22;17.20;1.00
1626;DHT22;806;48.770;9.156;2022-07-11T01:13:48;17.20;1.00
1626;DHT22;806;48.770;9.156;2022-07-11T01:16:17;17.30;99.90
1626;DHT22;806;48.770;9.156;2022-07-11T01:18:48;17.20;99.90
1626;DHT22;806;48.770;9.156;2022-07-11T01:21:24;17.20;99.90
1626;DHT22;806;48.770;9.156;2022-07-11T01:23:55;17.30;1.00
1626;DHT22;806;48.770;9.156;2022-07-11T01:26:24;17.20;1.00
1626;DHT22;806;48.770;9.156;2022-07-11T01:28:52;17.10;44.80
1626;DHT22;806;48.770;9.156;2022-07-11T01:31:19;16.90;99.90
1626;DHT22;806;48.770;9.156;2022-07-11T01:33:46;16.80;1.00
1626;DHT22;806;48.770;9.156;2022-07-11T01:36:13;16.80;1.00
1626;DHT22;806;48.770;9.156;2022-07-11T01:38:40;16.90;1.00
1626;DHT22;806;48.770;9.156;2022-07-11T01:41:09;16.90;1.00
1626;DHT22;806;48.770;9.156;2022-07-11T01:43:36;16.80;1.00
1626;DHT22;806;48.770;9.156;2022-07-11T01:46:03;16.90;1.00
1626;DHT22;806;48.770;9.156;2022-07-11T01:48:30;16.80;1.00
1626;DHT22;806;48.770;9.156;2022-07-11T01:50:57;16.80;1.00
1626;DHT22;806;48.770;9.156;2022-07-11T01:53:24;16.80;1.00
1626;DHT22;806;48.770;9.156;2022-07-11T01:55:51;16.80;1.00
1626;DHT22;806;48.770;9.156;2022-07-11T01:58:20;16.80;1.00
1626;DHT22;806;48.770;9.156;2022-07-11T02:00:47;16.70;40.40
1626;DHT22;806;48.770;9.156;2022-07-11T02:03:14;16.70;1.00
1626;DHT22;806;48.770;9.156;2022-07-11T02:05:42;16.60;99.90
1626;DHT22;806;48.770;9.156;2022-07-11T02:08:09;16.50;1.00
1626;DHT22;806;48.770;9.156;2022-07-11T02:10:43;16.40;1.00
1626;DHT22;806;48.770;9.156;2022-07-11T02:13:11;16.50;99.90
1626;DHT22;806;48.770;9.156;2022-07-11T02:15:42;16.50;99.90
1626;DHT22;806;48.770;9.156;2022-07-11T02:18:10;16.50;99.90
1626;DHT22;806;48.770;9.156;2022-07-11T02:20:37;16.40;99.90
1626;DHT22;806;48.770;9.156;2022-07-11T02:23:05;16.40;99.90
1626;DHT22;806;48.770;9.156;2022-07-11T02:25:32;16.40;1.00
1626;DHT22;806;48.770;9.156;2022-07-11T02:28:01;16.40;1.00
1626;DHT22;806;48.770;9.156;2022-07-11T02:30:28;16.50;1.00
1626;DHT22;806;48.770;9.156;2022-07-11T02:32:57;16.50;1.00
1626;DHT22;806;48.770;9.156;2022-07-11T02:35:24;16.40;99.90
1626;DHT22;806;48.770;9.156;2022-07-11T02:37:51;16.50;99.90
1626;DHT22;806;48.770;9.156;2022-07-11T02:40:18;16.50;99.90
1626;DHT22;806;48.770;9.156;2022-07-11T02:42:44;16.60;99.90
1626;DHT22;806;48.770;9.156;2022-07-11T02:45:12;16.50;1.00
1626;DHT22;806;48.770;9.156;2022-07-11T02:47:39;16.50;1.00
1626;DHT22;806;48.770;9.156;2022-07-11T02:50:11;16.50;1.00
1626;DHT22;806;48.770;9.156;2022-07-11T02:52:39;16.50;1.00
1626;DHT22;806;48.770;9.156;2022-07-11T02:55:08;16.50;1.00
1626;DHT22;806;48.770;9.156;2022-07-11T02:57:36;16.50;1.00
1626;DHT22;806;48.770;9.156;2022-07-11T03:00:05;16.50;99.90
1626;DHT22;806;48.770;9.156;2022-07-11T03:02:32;16.40;1.00
1626;DHT22;806;48.770;9.156;2022-07-11T03:04:59;16.40;1.00
1626;DHT22;806;48.770;9.156;2022-07-11T03:07:28;16.30;99.90
1626;DHT22;806;48.770;9.156;2022-07-11T03:09:55;16.30;99.90
1626;DHT22;806;48.770;9.156;2022-07-11T03:12:23;16.30;68.80
1626;DHT22;806;48.770;9.156;2022-07-11T03:14:50;16.30;99.90
1626;DHT22;806;48.770;9.156;2022-07-11T03:17:18;16.30;99.90
1626;DHT22;806;48.770;9.156;2022-07-11T03:19:45;16.20;99.90
1626;DHT22;806;48.770;9.156;2022-07-11T03:22:13;16.20;99.90
1626;DHT22;806;48.770;9.156;2022-07-11T03:24:42;16.10;1.00
1626;DHT22;806;48.770;9.156;2022-07-11T03:27:09;16.10;1.00
1626;DHT22;806;48.770;9.156;2022-07-11T03:29:36;16.20;99.90
1626;DHT22;806;48.770;9.156;2022-07-11T03:32:04;16.20;99.90
1626;DHT22;806;48.770;9.156;2022-07-11T03:34:31;16.30;99.90
1626;DHT22;806;48.770;9.156;2022-07-11T03:36:58;16.40;99.90
1626;DHT22;806;48.770;9.156;2022-07-11T03:39:25;16.50;28.50
1626;DHT22;806;48.770;9.156;2022-07-11T03:41:53;16.50;9.30
1626;DHT22;806;48.770;9.156;2022-07-11T03:44:20;16.60;1.00
1626;DHT22;806;48.770;9.156;2022-07-11T03:46:47;16.70;1.00
1626;DHT22;806;48.770;9.156;2022-07-11T03:49:14;16.70;99.90
1626;DHT22;806;48.770;9.156;2022-07-11T03:51:42;16.70;99.90
1626;DHT22;806;48.770;9.156;2022-07-11T03:54:09;16.80;1.00
1626;DHT22;806;48.770;9.156;2022-07-11T03:56:36;16.90;1.00
1626;DHT22;806;48.770;9.156;2022-07-11T03:59:04;16.90;34.20
1626;DHT22;806;48.770;9.156;2022-07-11T04:01:31;16.90;1.00
1626;DHT22;806;48.770;9.156;2022-07-11T04:03:58;16.90;1.00
1626;DHT22;806;48.770;9.156;2022-07-11T04:06:25;16.70;1.00
1626;DHT22;806;48.770;9.156;2022-07-11T04:08:53;16.60;19.30
1626;DHT22;806;48.770;9.156;2022-07-11T04:11:20;16.50;99.90
1626;DHT22;806;48.770;9.156;2022-07-11T04:13:47;16.50;99.90
1626;DHT22;806;48.770;9.156;2022-07-11T04:16:15;16.50;99.90
1626;DHT22;806;48.770;9.156;2022-07-11T04:18:42;16.50;99.90
1626;DHT22;806;48.770;9.156;2022-07-11T04:21:09;16.70;99.90
1626;DHT22;806;48.770;9.156;2022-07-11T04:23:36;16.80;99.90
1626;DHT22;806;48.770;9.156;2022-07-11T04:26:04;16.90;99.90
1626;DHT22;806;48.770;9.156;2022-07-11T04:28:31;17.00;1.00
1626;DHT22;806;48.770;9.156;2022-07-11T04:30:58;17.10;1.00
1626;DHT22;806;48.770;9.156;2022-07-11T04:33:26;17.10;1.00
1626;DHT22;806;48.770;9.156;2022-07-11T04:35:54;17.10;1.00
1626;DHT22;806;48.770;9.156;2022-07-11T04:38:21;17.10;99.90
1626;DHT22;806;48.770;9.156;2022-07-11T04:40:48;17.10;99.90
1626;DHT22;806;48.770;9.156;2022-07-11T04:43:15;17.10;1.00
1626;DHT22;806;48.770;9.156;2022-07-11T04:45:42;17.10;1.00
1626;DHT22;806;48.770;9.156;2022-07-11T04:48:09;17.10;1.00
1626;DHT22;806;48.770;9.156;2022-07-11T04:50:37;17.20;1.00
1626;DHT22;806;48.770;9.156;2022-07-11T04:53:04;17.40;1.00
1626;DHT22;806;48.770;9.156;2022-07-11T04:55:31;17.60;16.90
1626;DHT22;806;48.770;9.156;2022-07-11T04:57:58;17.50;1.00
1626;DHT22;806;48.770;9.156;2022-07-11T05:00:25;17.40;99.90
1626;DHT22;806;48.770;9.156;2022-07-11T05:02:52;17.50;1.00
1626;DHT22;806;48.770;9.156;2022-07-11T05:05:20;17.60;1.00
1626;DHT22;806;48.770;9.156;2022-07-11T05:07:50;17.70;1.00
1626;DHT22;806;48.770;9.156;2022-07-11T05:10:18;17.70;1.00
1626;DHT22;806;48.770;9.156;2022-07-11T05:12:45;17.70;1.00
1626;DHT22;806;48.770;9.156;2022-07-11T05:15:12;17.70;1.00
1626;DHT22;806;48.770;9.156;2022-07-11T05:17:39;17.70;1.00
1626;DHT22;806;48.770;9.156;2022-07-11T05:20:07;17.70;1.00
1626;DHT22;806;48.770;9.156;2022-07-11T05:22:34;17.60;99.90
1626;DHT22;806;48.770;9.156;2022-07-11T05:25:03;17.50;1.00
1626;DHT22;806;48.770;9.156;2022-07-11T05:27:30;17.40;22.10
1626;DHT22;806;48.770;9.156;2022-07-11T05:29:57;17.30;99.90
1626;DHT22;806;48.770;9.156;2022-07-11T05:32:24;17.30;99.90
1626;DHT22;806;48.770;9.156;2022-07-11T05:34:51;17.40;99.90
1626;DHT22;806;48.770;9.156;2022-07-11T05:37:18;17.40;99.90
1626;DHT22;806;48.770;9.156;2022-07-11T05:39:45;17.40;99.90
1626;DHT22;806;48.770;9.156;2022-07-11T05:42:13;17.40;99.90
1626;DHT22;806;48.770;9.156;2022-07-11T05:44:41;17.40;99.90
1626;DHT22;806;48.770;9.156;2022-07-11T05:47:08;17.40;99.90
1626;DHT22;806;48.770;9.156;2022-07-11T05:49:35;17.50;81.30
1626;DHT22;806;48.770;9.156;2022-07-11T05:52:03;17.40;99.90
1626;DHT22;806;48.770;9.156;2022-07-11T05:54:30;17.50;99.90
1626;DHT22;806;48.770;9.156;2022-07-11T05:56:57;17.50;99.90
1626;DHT22;806;48.770;9.156;2022-07-11T05:59:25;17.60;99.90
1626;DHT22;806;48.770;9.156;2022-07-11T06:01:52;17.70;1.00
1626;DHT22;806;48.770;9.156;2022-07-11T06:04:19;17.80;1.00
1626;DHT22;806;48.770;9.156;2022-07-11T06:06:46;17.80;99.90
1626;DHT22;806;48.770;9.156;2022-07-11T06:09:13;17.80;1.00
1626;DHT22;806;48.770;9.156;2022-07-11T06:11:40;17.90;1.00
1626;DHT22;806;48.770;9.156;2022-07-11T06:14:08;17.90;1.00
1626;DHT22;806;48.770;9.156;2022-07-11T06:16:36;17.90;1.00
1626;DHT22;806;48.770;9.156;2022-07-11T06:19:03;17.90;99.90
1626;DHT22;806;48.770;9.156;2022-07-11T06:21:31;18.10;1.00
1626;DHT22;806;48.770;9.156;2022-07-11T06:23:59;18.30;1.00
1626;DHT22;806;48.770;9.156;2022-07-11T06:26:26;18.70;1.00
1626;DHT22;806;48.770;9.156;2022-07-11T06:28:53;18.70;99.40
1626;DHT22;806;48.770;9.156;2022-07-11T06:31:20;18.40;99.90
1626;DHT22;806;48.770;9.156;2022-07-11T06:33:49;18.40;1.00
1626;DHT22;806;48.770;9.156;2022-07-11T06:36:20;18.50;99.90
1626;DHT22;806;48.770;9.156;2022-07-11T06:38:48;18.80;1.00
1626;DHT22;806;48.770;9.156;2022-07-11T06:41:15;19.10;99.90
1626;DHT22;806;48.770;9.156;2022-07-11T06:43:42;19.30;99.90
1626;DHT22;806;48.770;9.156;2022-07-11T06:46:10;19.00;54.20
1626;DHT22;806;48.770;9.156;2022-07-11T06:48:37;18.90;99.90
1626;DHT22;806;48.770;9.156;2022-07-11T06:51:06;19.00;99.90
1626;DHT22;806;48.770;9.156;2022-07-11T06:53:34;18.90;99.90
1626;DHT22;806;48.770;9.156;2022-07-11T06:56:01;19.00;99.90
1626;DHT22;806;48.770;9.156;2022-07-11T06:58:28;19.30;99.90
1626;DHT22;806;48.770;9.156;2022-07-11T07:00:59;19.30;1.00
1626;DHT22;806;48.770;9.156;2022-07-11T07:03:27;19.50;1.00
1626;DHT22;806;48.770;9.156;2022-07-11T07:05:54;19.60;1.00
1626;DHT22;806;48.770;9.156;2022-07-11T07:08:31;19.90;1.00
1626;DHT22;806;48.770;9.156;2022-07-11T07:11:00;19.80;1.00
1626;DHT22;806;48.770;9.156;2022-07-11T07:13:27;19.70;1.00
1626;DHT22;806;48.770;9.156;2022-07-11T07:15:55;19.80;1.00
1626;DHT22;806;48.770;9.156;2022-07-11T07:18:22;19.70;1.00
1626;DHT22;806;48.770;9.156;2022-07-11T07:20:50;19.80;1.00
1626;DHT22;806;48.770;9.156;2022-07-11T07:23:18;20.10;99.90
1626;DHT22;806;48.770;9.156;2022-07-11T07:25:47;20.20;99.90
1626;DHT22;806;48.770;9.156;2022-07-11T07:28:16;19.80;99.90
1626;DHT22;806;48.770;9.156;2022-07-11T07:30:43;19.90;99.90
1626;DHT22;806;48.770;9.156;2022-07-11T07:33:11;20.10;99.90
1626;DHT22;806;48.770;9.156;2022-07-11T07:35:38;20.20;99.90
1626;DHT22;806;48.770;9.156;2022-07-11T07:38:05;20.40;99.90
1626;DHT22;806;48.770;9.156;2022-07-11T07:40:32;20.30;99.90
1626;DHT22;806;48.770;9.156;2022-07-11T07:43:00;20.50;99.90
1626;DHT22;806;48.770;9.156;2022-07-11T07:45:28;20.60;99.90
1626;DHT22;806;48.770;9.156;2022-07-11T07:47:55;20.50;91.50
1626;DHT22;806;48.770;9.156;2022-07-11T07:50:22;20.50;99.60
1626;DHT22;806;48.770;9.156;2022-07-11T07:52:49;20.80;45.20
1626;DHT22;806;48.770;9.156;2022-07-11T07:55:16;20.90;1.00
1626;DHT22;806;48.770;9.156;2022-07-11T07:57:44;21.00;1.00
1626;DHT22;806;48.770;9.156;2022-07-11T08:00:13;20.90;1.00
1626;DHT22;806;48.770;9.156;2022-07-11T08:03:03;20.90;1.00
1626;DHT22;806;48.770;9.156;2022-07-11T08:05:30;20.90;1.00
1626;DHT22;806;48.770;9.156;2022-07-11T08:07:57;20.80;1.00
1626;DHT22;806;48.770;9.156;2022-07-11T08:10:25;20.70;1.00
1626;DHT22;806;48.770;9.156;2022-07-11T08:12:52;20.60;1.00
1626;DHT22;806;48.770;9.156;2022-07-11T08:15:20;20.70;1.00
1626;DHT22;806;48.770;9.156;2022-07-11T08:17:47;21.00;1.00
1626;DHT22;806;48.770;9.156;2022-07-11T08:20:21;21.30;1.00
1626;DHT22;806;48.770;9.156;2022-07-11T08:22:48;21.50;1.00
1626;DHT22;806;48.770;9.156;2022-07-11T08:25:15;21.30;1.00
1626;DHT22;806;48.770;9.156;2022-07-11T08:27:42;21.30;1.00
1626;DHT22;806;48.770;9.156;2022-07-11T08:30:10;21.40;1.00
1626;DHT22;806;48.770;9.156;2022-07-11T08:32:41;21.50;1.00
1626;DHT22;806;48.770;9.156;2022-07-11T08:35:09;21.60;1.00
1626;DHT22;806;48.770;9.156;2022-07-11T08:37:36;21.70;1.00
1626;DHT22;806;48.770;9.156;2022-07-11T08:40:04;21.60;1.00
1626;DHT22;806;48.770;9.156;2022-07-11T08:42:32;21.40;1.00
1626;DHT22;806;48.770;9.156;2022-07-11T08:45:01;21.00;1.00
1626;DHT22;806;48.770;9.156;2022-07-11T08:47:28;21.20;1.00
1626;DHT22;806;48.770;9.156;2022-07-11T08:49:59;21.40;1.00
1626;DHT22;806;48.770;9.156;2022-07-11T08:52:28;21.60;1.00
1626;DHT22;806;48.770;9.156;2022-07-11T08:54:55;21.90;1.00
1626;DHT22;806;48.770;9.156;2022-07-11T08:57:22;22.20;1.00
1626;DHT22;806;48.770;9.156;2022-07-11T08:59:52;22.60;1.00
1626;DHT22;806;48.770;9.156;2022-07-11T09:02:21;22.80;1.00
1626;DHT22;806;48.770;9.156;2022-07-11T09:04:48;23.00;1.00
1626;DHT22;806;48.770;9.156;2022-07-11T09:07:16;22.90;1.00
1626;DHT22;806;48.770;9.156;2022-07-11T09:09:43;22.80;1.00
1626;DHT22;806;48.770;9.156;2022-07-11T09:12:12;22.90;1.00
1626;DHT22;806;48.770;9.156;2022-07-11T09:14:39;22.90;1.00
1626;DHT22;806;48.770;9.156;2022-07-11T09:17:06;22.90;1.00
1626;DHT22;806;48.770;9.156;2022-07-11T09:19:35;23.10;1.00
1626;DHT22;806;48.770;9.156;2022-07-11T09:22:06;23.60;1.00
1626;DHT22;806;48.770;9.156;2022-07-11T09:24:57;23.60;1.00
1626;DHT22;806;48.770;9.156;2022-07-11T09:27:44;23.70;1.00
1626;DHT22;806;48.770;9.156;2022-07-11T09:30:17;24.00;1.00
1626;DHT22;806;48.770;9.156;2022-07-11T09:32:55;23.90;1.00
1626;DHT22;806;48.770;9.156;2022-07-11T09:35:23;24.00;1.00
1626;DHT22;806;48.770;9.156;2022-07-11T09:37:51;23.90;1.00
1626;DHT22;806;48.770;9.156;2022-07-11T09:40:23;23.70;1.00
1626;DHT22;806;48.770;9.156;2022-07-11T09:42:55;23.60;1.00
1626;DHT22;806;48.770;9.156;2022-07-11T09:45:24;23.70;1.00
1626;DHT22;806;48.770;9.156;2022-07-11T09:47:53;23.70;1.00
1626;DHT22;806;48.770;9.156;2022-07-11T09:50:21;23.60;1.00
1626;DHT22;806;48.770;9.156;2022-07-11T09:52:59;23.70;1.00
1626;DHT22;806;48.770;9.156;2022-07-11T09:55:29;23.60;1.00
1626;DHT22;806;48.770;9.156;2022-07-11T09:57:56;23.50;1.00
1626;DHT22;806;48.770;9.156;2022-07-11T10:00:24;23.40;1.00
1626;DHT22;806;48.770;9.156;2022-07-11T10:02:52;23.50;1.00
1626;DHT22;806;48.770;9.156;2022-07-11T10:05:21;23.30;1.00
1626;DHT22;806;48.770;9.156;2022-07-11T10:07:48;23.10;1.00
1626;DHT22;806;48.770;9.156;2022-07-11T10:10:16;23.20;1.00
1626;DHT22;806;48.770;9.156;2022-07-11T10:12:45;23.20;1.00
1626;DHT22;806;48.770;9.156;2022-07-11T10:15:15;23.30;1.00
1626;DHT22;806;48.770;9.156;2022-07-11T10:17:54;23.40;1.00
1626;DHT22;806;48.770;9.156;2022-07-11T10:20:29;23.50;1.00
1626;DHT22;806;48.770;9.156;2022-07-11T10:23:08;23.40;1.00
1626;DHT22;806;48.770;9.156;2022-07-11T10:25:40;23.60;1.00
1626;DHT22;806;48.770;9.156;2022-07-11T10:28:22;24.00;1.00
1626;DHT22;806;48.770;9.156;2022-07-11T10:30:52;24.10;1.00
1626;DHT22;806;48.770;9.156;2022-07-11T10:33:21;24.60;1.00
1626;DHT22;806;48.770;9.156;2022-07-11T10:35:49;24.90;1.00
1626;DHT22;806;48.770;9.156;2022-07-11T10:38:18;25.00;1.00
1626;DHT22;806;48.770;9.156;2022-07-11T10:40:52;24.80;1.00
1626;DHT22;806;48.770;9.156;2022-07-11T10:43:38;24.50;1.00
1626;DHT22;806;48.770;9.156;2022-07-11T10:46:09;24.80;1.00
1626;DHT22;806;48.770;9.156;2022-07-11T10:48:58;25.20;1.00
1626;DHT22;806;48.770;9.156;2022-07-11T10:51:32;26.00;1.00
1626;DHT22;806;48.770;9.156;2022-07-11T10:54:12;26.40;1.00
1626;DHT22;806;48.770;9.156;2022-07-11T10:56:53;26.90;1.00
1626;DHT22;806;48.770;9.156;2022-07-11T10:59:25;26.60;1.00
1626;DHT22;806;48.770;9.156;2022-07-11T11:02:03;26.10;1.00
1626;DHT22;806;48.770;9.156;2022-07-11T11:04:47;25.60;1.00
1626;DHT22;806;48.770;9.156;2022-07-11T11:07:30;25.50;1.00
1626;DHT22;806;48.770;9.156;2022-07-11T11:09:58;25.50;1.00
1626;DHT22;806;48.770;9.156;2022-07-11T11:15:34;25.20;1.00
1626;DHT22;806;48.770;9.156;2022-07-11T11:18:32;25.20;1.00
1626;DHT22;806;48.770;9.156;2022-07-11T11:21:20;25.40;1.00
1626;DHT22;806;48.770;9.156;2022-07-11T11:24:04;25.50;1.00
1626;DHT22;806;48.770;9.156;2022-07-11T11:26:48;26.00;1.00
1626;DHT22;806;48.770;9.156;2022-07-11T11:29:21;26.20;1.00
1626;DHT22;806;48.770;9.156;2022-07-11T11:31:51;26.20;1.00
1626;DHT22;806;48.770;9.156;2022-07-11T11:34:18;26.60;1.00
1626;DHT22;806;48.770;9.156;2022-07-11T11:36:52;26.30;1.00
1626;DHT22;806;48.770;9.156;2022-07-11T11:39:25;26.50;1.00
1626;DHT22;806;48.770;9.156;2022-07-11T11:41:52;26.70;1.00
1626;DHT22;806;48.770;9.156;2022-07-11T11:44:19;26.50;1.00
1626;DHT22;806;48.770;9.156;2022-07-11T11:46:46;26.40;1.00
1626;DHT22;806;48.770;9.156;2022-07-11T11:49:18;26.80;1.00
1626;DHT22;806;48.770;9.156;2022-07-11T11:51:47;27.20;1.00
1626;DHT22;806;48.770;9.156;2022-07-11T11:54:22;27.60;1.00
1626;DHT22;806;48.770;9.156;2022-07-11T11:56:50;27.60;1.00
1626;DHT22;806;48.770;9.156;2022-07-11T11:59:17;27.30;1.00
1626;DHT22;806;48.770;9.156;2022-07-11T12:01:46;27.00;1.00
1626;DHT22;806;48.770;9.156;2022-07-11T12:04:15;26.80;1.00
1626;DHT22;806;48.770;9.156;2022-07-11T12:06:44;26.60;1.00
1626;DHT22;806;48.770;9.156;2022-07-11T12:09:13;26.50;1.00
1626;DHT22;806;48.770;9.156;2022-07-11T12:11:43;26.20;1.00
1626;DHT22;806;48.770;9.156;2022-07-11T12:14:14;26.00;1.00
1626;DHT22;806;48.770;9.156;2022-07-11T12:16:43;26.10;1.00
1626;DHT22;806;48.770;9.156;2022-07-11T12:19:12;26.00;1.00
1626;DHT22;806;48.770;9.156;2022-07-11T12:21:48;26.10;1.00
1626;DHT22;806;48.770;9.156;2022-07-11T12:24:19;26.30;1.00
1626;DHT22;806;48.770;9.156;2022-07-11T12:26:48;26.40;1.00
1626;DHT22;806;48.770;9.156;2022-07-11T12:29:17;26.60;1.00
1626;DHT22;806;48.770;9.156;2022-07-11T12:31:47;27.00;1.00
1626;DHT22;806;48.770;9.156;2022-07-11T12:34:17;26.90;1.00
1626;DHT22;806;48.770;9.156;2022-07-11T12:36:46;26.90;1.00
1626;DHT22;806;48.770;9.156;2022-07-11T12:39:23;26.60;1.00
1626;DHT22;806;48.770;9.156;2022-07-11T12:41:55;26.50;1.00
1626;DHT22;806;48.770;9.156;2022-07-11T12:44:23;26.50;1.00
1626;DHT22;806;48.770;9.156;2022-07-11T12:47:07;26.20;1.00
1626;DHT22;806;48.770;9.156;2022-07-11T12:49:34;26.20;1.00
1626;DHT22;806;48.770;9.156;2022-07-11T12:52:04;26.30;1.00
1626;DHT22;806;48.770;9.156;2022-07-11T12:54:33;26.80;1.00
1626;DHT22;806;48.770;9.156;2022-07-11T12:57:01;26.50;1.00
1626;DHT22;806;48.770;9.156;2022-07-11T12:59:30;26.20;1.00
1626;DHT22;806;48.770;9.156;2022-07-11T13:01:59;26.00;1.00
1626;DHT22;806;48.770;9.156;2022-07-11T13:04:34;25.90;1.00
1626;DHT22;806;48.770;9.156;2022-07-11T13:07:25;26.00;1.00
1626;DHT22;806;48.770;9.156;2022-07-11T13:10:11;25.70;1.00
1626;DHT22;806;48.770;9.156;2022-07-11T13:12:39;25.80;1.00
1626;DHT22;806;48.770;9.156;2022-07-11T13:15:08;25.70;1.00
1626;DHT22;806;48.770;9.156;2022-07-11T13:17:36;25.90;1.00
1626;DHT22;806;48.770;9.156;2022-07-11T13:20:06;26.10;1.00
1626;DHT22;806;48.770;9.156;2022-07-11T13:22:35;25.90;1.00
1626;DHT22;806;48.770;9.156;2022-07-11T13:25:03;25.90;1.00
1626;DHT22;806;48.770;9.156;2022-07-11T13:27:30;26.20;1.00
1626;DHT22;806;48.770;9.156;2022-07-11T13:29:58;25.90;1.00
1626;DHT22;806;48.770;9.156;2022-07-11T13:32:25;25.90;1.00
1626;DHT22;806;48.770;9.156;2022-07-11T13:34:52;25.70;1.00
1626;DHT22;806;48.770;9.156;2022-07-11T13:37:19;25.90;1.00
1626;DHT22;806;48.770;9.156;2022-07-11T13:39:47;25.70;1.00
1626;DHT22;806;48.770;9.156;2022-07-11T13:42:14;25.70;1.00
1626;DHT22;806;48.770;9.156;2022-07-11T13:44:41;25.70;1.00
1626;DHT22;806;48.770;9.156;2022-07-11T13:47:08;25.70;1.00
1626;DHT22;806;48.770;9.156;2022-07-11T13:49:35;25.60;1.00
1626;DHT22;806;48.770;9.156;2022-07-11T13:52:03;25.60;1.00
1626;DHT22;806;48.770;9.156;2022-07-11T13:54:30;25.70;1.00
1626;DHT22;806;48.770;9.156;2022-07-11T13:56:59;25.70;1.00
1626;DHT22;806;48.770;9.156;2022-07-11T13:59:27;25.80;1.00
1626;DHT22;806;48.770;9.156;2022-07-11T14:01:53;25.70;1.00
1626;DHT22;806;48.770;9.156;2022-07-11T14:04:20;26.00;1.00
1626;DHT22;806;48.770;9.156;2022-07-11T14:06:47;26.00;1.00
1626;DHT22;806;48.770;9.156;2022-07-11T14:09:14;26.20;1.00
1626;DHT22;806;48.770;9.156;2022-07-11T14:11:42;26.20;1.00
1626;DHT22;806;48.770;9.156;2022-07-11T14:14:11;26.10;1.00
1626;DHT22;806;48.770;9.156;2022-07-11T14:16:38;26.00;1.00
1626;DHT22;806;48.770;9.156;2022-07-11T14:19:05;26.00;1.00
1626;DHT22;806;48.770;9.156;2022-07-11T14:21:33;26.00;1.00
1626;DHT22;806;48.770;9.156;2022-07-11T14:24:00;26.00;1.00
1626;DHT22;806;48.770;9.156;2022-07-11T14:26:28;26.00;1.00
1626;DHT22;806;48.770;9.156;2022-07-11T14:28:55;26.00;1.00
1626;DHT22;806;48.770;9.156;2022-07-11T14:31:23;25.80;1.00
1626;DHT22;806;48.770;9.156;2022-07-11T14:33:53;25.60;1.00
1626;DHT22;806;48.770;9.156;2022-07-11T14:36:20;25.60;1.00
1626;DHT22;806;48.770;9.156;2022-07-11T14:38:49;25.60;1.00
1626;DHT22;806;48.770;9.156;2022-07-11T14:41:16;25.60;1.00
1626;DHT22;806;48.770;9.156;2022-07-11T14:43:43;25.70;1.00
1626;DHT22;806;48.770;9.156;2022-07-11T14:46:11;25.60;1.00
1626;DHT22;806;48.770;9.156;2022-07-11T14:48:39;25.70;1.00
1626;DHT22;806;48.770;9.156;2022-07-11T14:51:07;25.70;1.00
1626;DHT22;806;48.770;9.156;2022-07-11T14:53:34;25.60;1.00
1626;DHT22;806;48.770;9.156;2022-07-11T14:56:02;25.60;1.00
1626;DHT22;806;48.770;9.156;2022-07-11T14:58:29;26.00;1.00
1626;DHT22;806;48.770;9.156;2022-07-11T15:00:56;26.10;1.00
1626;DHT22;806;48.770;9.156;2022-07-11T15:03:23;26.30;1.00
1626;DHT22;806;48.770;9.156;2022-07-11T15:06:10;26.40;1.00
1626;DHT22;806;48.770;9.156;2022-07-11T15:08:37;26.50;1.00
1626;DHT22;806;48.770;9.156;2022-07-11T15:11:21;26.20;1.00
1626;DHT22;806;48.770;9.156;2022-07-11T15:14:05;26.00;1.00
1626;DHT22;806;48.770;9.156;2022-07-11T15:16:33;25.70;1.00
1626;DHT22;806;48.770;9.156;2022-07-11T15:19:01;25.50;1.00
1626;DHT22;806;48.770;9.156;2022-07-11T15:21:30;25.30;1.00
1626;DHT22;806;48.770;9.156;2022-07-11T15:23:58;25.10;1.00
1626;DHT22;806;48.770;9.156;2022-07-11T15:26:25;25.10;1.00
1626;DHT22;806;48.770;9.156;2022-07-11T15:28:53;25.00;1.00
1626;DHT22;806;48.770;9.156;2022-07-11T15:31:21;25.10;1.00
1626;DHT22;806;48.770;9.156;2022-07-11T15:33:48;25.10;1.00
1626;DHT22;806;48.770;9.156;2022-07-11T15:36:17;24.90;1.00
1626;DHT22;806;48.770;9.156;2022-07-11T15:38:46;24.80;1.00
1626;DHT22;806;48.770;9.156;2022-07-11T15:41:15;24.90;1.00
1626;DHT22;806;48.770;9.156;2022-07-11T15:43:42;24.90;1.00
1626;DHT22;806;48.770;9.156;2022-07-11T15:46:09;24.80;1.00
1626;DHT22;806;48.770;9.156;2022-07-11T15:48:36;24.80;1.00
1626;DHT22;806;48.770;9.156;2022-07-11T15:51:04;25.00;1.00
1626;DHT22;806;48.770;9.156;2022-07-11T15:53:37;25.20;1.00
1626;DHT22;806;48.770;9.156;2022-07-11T15:56:05;25.30;1.00
1626;DHT22;806;48.770;9.156;2022-07-11T15:58:32;25.30;1.00
1626;DHT22;806;48.770;9.156;2022-07-11T16:01:00;25.30;1.00
1626;DHT22;806;48.770;9.156;2022-07-11T16:03:27;25.40;1.00
1626;DHT22;806;48.770;9.156;2022-07-11T16:05:55;25.30;1.00
1626;DHT22;806;48.770;9.156;2022-07-11T16:08:22;25.20;1.00
1626;DHT22;806;48.770;9.156;2022-07-11T16:10:50;25.10;1.00
1626;DHT22;806;48.770;9.156;2022-07-11T16:13:18;24.90;1.00
1626;DHT22;806;48.770;9.156;2022-07-11T16:15:46;24.80;1.00
1626;DHT22;806;48.770;9.156;2022-07-11T16:18:13;24.80;1.00
1626;DHT22;806;48.770;9.156;2022-07-11T16:20:41;24.90;1.00
1626;DHT22;806;48.770;9.156;2022-07-11T16:23:09;25.00;1.00
1626;DHT22;806;48.770;9.156;2022-07-11T16:25:36;24.90;1.00
1626;DHT22;806;48.770;9.156;2022-07-11T16:28:03;24.80;1.00
1626;DHT22;806;48.770;9.156;2022-07-11T16:30:31;24.80;1.00
1626;DHT22;806;48.770;9.156;2022-07-11T16:33:01;24.90;1.00
1626;DHT22;806;48.770;9.156;2022-07-11T16:35:28;25.00;1.00
1626;DHT22;806;48.770;9.156;2022-07-11T16:37:56;25.00;1.00
1626;DHT22;806;48.770;9.156;2022-07-11T16:40:23;24.90;1.00
1626;DHT22;806;48.770;9.156;2022-07-11T16:43:08;24.90;1.00
1626;DHT22;806;48.770;9.156;2022-07-11T16:45:50;24.90;1.00